Time;durP1;ratioP1;P1;durP2;ratioP2;P2;SDS_P1;SDS_P2;PMS_P1;PMS_P2;Temp;Humidity;BMP_temperature;BMP_pressure;BME280_temperature;BME280_humidity;BME280_pressure;Samples;Min_cycle;Max_cycle;Signal;HPM_P1;HPM_P2
2023/08/30 00:00:48;;;;;;;21.20;16.83;;;;;;;;;;5109928;28;20016;-74
2023/08/30 00:03:14;;;;;;;17.63;14.43;;;;;;;;;;5096834;28;20028;-74
2023/08/30 00:05:40;;;;;;;16.90;14.07;;;;;;;;;;5096421;28;20031;-74
2023/08/30 00:08:06;;;;;;;17.77;14.32;;;;;;;;;;5091538;28;20027;-74
2023/08/30 00:10:32;;;;;;;18.08;13.27;;;;;;;;;;5108761;28;20032;-75
2023/08/30 00:12:58;;;;;;;17.17;14.38;;;;;;;;;;5112060;28;20070;-74
2023/08/30 00:15:24;;;;;;;17.30;13.80;;;;;;;;;;5089954;28;20016;-74
2023/08/30 00:17:51;;;;;;;17.17;13.23;;;;;;;;;;5096387;28;20042;-74
2023/08/30 00:20:18;;;;;;;19.52;14.15;;;;;;;;;;5096655;28;20024;-74
2023/08/30 00:22:44;;;;;;;17.00;12.38;;;;;;;;;;5111469;28;20052;-74
2023/08/30 00:25:12;;;;;;;17.58;14.02;;;;;;;;;;5107939;28;20035;-74
2023/08/30 00:27:38;;;;;;;20.42;14.18;;;;;;;;;;5112125;28;20032;-74
2023/08/30 00:30:08;;;;;;;20.85;14.00;;;;;;;;;;5112490;28;20083;-74
2023/08/30 00:32:36;;;;;;;17.63;14.23;;;;;;;;;;5112195;28;21093;-74
2023/08/30 00:35:02;;;;;;;16.63;13.32;;;;;;;;;;5097135;28;20009;-74
2023/08/30 00:37:28;;;;;;;18.30;13.13;;;;;;;;;;5090222;28;20032;-74
2023/08/30 00:39:57;;;;;;;20.13;12.85;;;;;;;;;;5098745;28;20445;-74
2023/08/30 00:42:23;;;;;;;15.30;11.32;;;;;;;;;;5096242;28;20035;-74
2023/08/30 00:44:51;;;;;;;16.48;13.13;;;;;;;;;;5096770;28;20147;-74
2023/08/30 00:47:20;;;;;;;14.82;12.88;;;;;;;;;;5111826;28;20017;-74
2023/08/30 00:49:45;;;;;;;16.05;12.70;;;;;;;;;;5093779;28;20023;-74
2023/08/30 00:52:12;;;;;;;23.95;12.75;;;;;;;;;;5111400;28;20088;-74
2023/08/30 00:54:38;;;;;;;18.05;12.32;;;;;;;;;;5112491;28;20042;-74
2023/08/30 00:57:05;;;;;;;17.38;13.45;;;;;;;;;;5111815;28;20024;-74
2023/08/30 00:59:32;;;;;;;17.63;13.07;;;;;;;;;;5094218;28;20016;-74
2023/08/30 01:02:00;;;;;;;15.75;12.68;;;;;;;;;;5097989;28;20050;-74
2023/08/30 01:04:29;;;;;;;22.38;12.27;;;;;;;;;;5111921;28;20617;-73
2023/08/30 01:06:55;;;;;;;21.45;13.43;;;;;;;;;;5110242;28;20024;-74
2023/08/30 01:09:21;;;;;;;18.52;13.07;;;;;;;;;;5112445;28;20024;-74
2023/08/30 01:12:06;;;;;;;19.30;12.60;;;;;;;;;;5093124;28;20039;-74
2023/08/30 01:14:41;;;;;;;13.35;11.45;;;;;;;;;;5093751;28;20055;-74
2023/08/30 01:17:08;;;;;;;13.40;11.90;;;;;;;;;;5094617;28;20012;-74
2023/08/30 01:19:55;;;;;;;13.48;10.35;;;;;;;;;;5094842;28;20057;-74
2023/08/30 01:22:29;;;;;;;11.95;9.88;;;;;;;;;;5093584;28;20028;-74
2023/08/30 01:25:06;;;;;;;11.95;10.27;;;;;;;;;;5096068;28;20004;-74
2023/08/30 01:27:37;;;;;;;15.77;10.95;;;;;;;;;;5110789;28;20062;-75
2023/08/30 01:30:06;;;;;;;12.25;10.75;;;;;;;;;;5089732;28;20047;-74
2023/08/30 01:32:33;;;;;;;14.00;10.30;;;;;;;;;;5092419;28;20078;-74
2023/08/30 01:35:00;;;;;;;11.98;10.75;;;;;;;;;;5106880;28;20028;-74
2023/08/30 01:37:29;;;;;;;19.02;11.02;;;;;;;;;;5094530;28;20118;-74
2023/08/30 01:39:59;;;;;;;20.02;10.27;;;;;;;;;;5110314;28;20020;-75
2023/08/30 01:42:26;;;;;;;14.77;10.20;;;;;;;;;;5090558;28;20028;-74
2023/08/30 01:44:57;;;;;;;14.68;9.93;;;;;;;;;;5110504;28;20035;-74
2023/08/30 01:47:24;;;;;;;14.57;9.68;;;;;;;;;;5110721;28;20032;-73
2023/08/30 01:49:50;;;;;;;14.43;9.52;;;;;;;;;;5093245;28;20099;-74
2023/08/30 01:52:19;;;;;;;14.98;9.73;;;;;;;;;;5110490;28;20036;-74
2023/08/30 01:54:46;;;;;;;19.02;9.60;;;;;;;;;;5110295;28;20028;-74
2023/08/30 01:57:12;;;;;;;14.88;9.00;;;;;;;;;;5093614;28;20040;-74
2023/08/30 01:59:38;;;;;;;11.63;9.43;;;;;;;;;;5088723;28;20051;-74
2023/08/30 02:02:07;;;;;;;14.52;8.35;;;;;;;;;;5093038;28;20021;-74
2023/08/30 02:04:33;;;;;;;12.75;9.35;;;;;;;;;;5094507;28;20042;-74
2023/08/30 02:07:01;;;;;;;11.65;9.40;;;;;;;;;;5110222;28;20095;-74
2023/08/30 02:09:28;;;;;;;14.98;9.20;;;;;;;;;;5088538;28;20083;-75
2023/08/30 02:11:56;;;;;;;11.18;9.43;;;;;;;;;;5111005;28;20024;-74
2023/08/30 02:14:23;;;;;;;17.52;9.32;;;;;;;;;;5109534;28;20044;-74
2023/08/30 02:16:49;;;;;;;14.55;9.88;;;;;;;;;;5092810;28;20100;-74
2023/08/30 02:19:20;;;;;;;12.52;9.20;;;;;;;;;;5090339;28;20075;-74
2023/08/30 02:21:47;;;;;;;15.80;9.38;;;;;;;;;;5108886;28;20043;-74
2023/08/30 02:24:13;;;;;;;13.23;9.75;;;;;;;;;;5109479;28;20026;-74
2023/08/30 02:26:39;;;;;;;12.48;9.10;;;;;;;;;;5110775;28;20051;-74
2023/08/30 02:29:08;;;;;;;11.20;9.43;;;;;;;;;;5093708;28;20013;-74
2023/08/30 02:31:34;;;;;;;14.23;9.65;;;;;;;;;;5096597;28;20020;-74
2023/08/30 02:34:02;;;;;;;12.35;8.68;;;;;;;;;;5105941;28;21134;-74
2023/08/30 02:36:28;;;;;;;14.65;9.50;;;;;;;;;;5109682;28;20046;-75
2023/08/30 02:38:57;;;;;;;15.35;9.57;;;;;;;;;;5092883;28;20095;-74
2023/08/30 02:41:22;;;;;;;9.77;8.77;;;;;;;;;;5110037;28;20681;-74
2023/08/30 02:43:49;;;;;;;12.43;8.93;;;;;;;;;;5094593;28;20071;-74
2023/08/30 02:46:15;;;;;;;11.88;8.52;;;;;;;;;;5093559;28;20193;-74
2023/08/30 02:48:40;;;;;;;13.30;8.95;;;;;;;;;;5092296;28;20059;-74
2023/08/30 02:51:06;;;;;;;9.45;8.40;;;;;;;;;;5087945;28;20024;-74
2023/08/30 02:53:32;;;;;;;11.15;8.75;;;;;;;;;;5096070;28;20040;-74
2023/08/30 02:55:58;;;;;;;14.45;9.38;;;;;;;;;;5093896;28;20032;-75
2023/08/30 02:58:24;;;;;;;14.32;9.50;;;;;;;;;;5092424;28;20044;-76
2023/08/30 03:00:50;;;;;;;13.40;9.63;;;;;;;;;;5096384;28;20027;-75
2023/08/30 03:03:19;;;;;;;12.43;8.65;;;;;;;;;;5092633;28;20111;-74
2023/08/30 03:05:45;;;;;;;12.88;8.65;;;;;;;;;;5093615;28;20027;-74
2023/08/30 03:08:13;;;;;;;14.32;9.15;;;;;;;;;;5092649;28;20028;-74
2023/08/30 03:10:41;;;;;;;12.65;8.05;;;;;;;;;;5093962;28;20027;-74
2023/08/30 03:13:07;;;;;;;12.07;7.93;;;;;;;;;;5092133;28;20028;-74
2023/08/30 03:15:33;;;;;;;10.43;8.80;;;;;;;;;;5091971;28;20024;-74
2023/08/30 03:18:00;;;;;;;10.07;8.20;;;;;;;;;;5087385;28;20036;-75
2023/08/30 03:20:28;;;;;;;13.27;8.88;;;;;;;;;;5091637;28;20028;-74
2023/08/30 03:22:56;;;;;;;18.38;8.93;;;;;;;;;;5109702;28;20020;-74
2023/08/30 03:25:22;;;;;;;12.40;8.60;;;;;;;;;;5109755;28;20020;-73
2023/08/30 03:27:50;;;;;;;12.50;9.17;;;;;;;;;;5093627;28;20027;-74
2023/08/30 03:30:18;;;;;;;14.63;9.53;;;;;;;;;;5088640;28;20059;-74
2023/08/30 03:32:44;;;;;;;15.33;9.10;;;;;;;;;;5107784;28;20025;-75
2023/08/30 03:35:11;;;;;;;14.10;8.43;;;;;;;;;;5093083;28;20044;-74
2023/08/30 03:37:37;;;;;;;16.10;9.13;;;;;;;;;;5114242;28;20012;-74
2023/08/30 03:40:04;;;;;;;11.70;8.83;;;;;;;;;;5092481;28;20047;-74
2023/08/30 03:42:32;;;;;;;12.50;8.50;;;;;;;;;;5111525;28;20032;-73
2023/08/30 03:44:59;;;;;;;9.67;8.67;;;;;;;;;;5112490;28;20031;-75
2023/08/30 03:47:24;;;;;;;12.63;8.57;;;;;;;;;;5096508;28;20039;-74
2023/08/30 03:49:50;;;;;;;15.27;8.03;;;;;;;;;;5113581;28;20068;-74
2023/08/30 03:52:16;;;;;;;11.60;8.45;;;;;;;;;;5095509;28;20031;-74
2023/08/30 03:54:42;;;;;;;11.07;8.83;;;;;;;;;;5111660;28;20060;-74
2023/08/30 03:57:08;;;;;;;15.23;9.13;;;;;;;;;;5095317;28;20134;-75
2023/08/30 03:59:34;;;;;;;11.20;8.33;;;;;;;;;;5097406;28;20016;-74
2023/08/30 04:02:00;;;;;;;10.83;8.37;;;;;;;;;;5091480;28;20024;-76
2023/08/30 04:04:29;;;;;;;12.93;8.13;;;;;;;;;;5097781;28;20074;-75
2023/08/30 04:06:54;;;;;;;12.47;7.73;;;;;;;;;;5111668;28;20036;-74
2023/08/30 04:09:23;;;;;;;11.47;8.03;;;;;;;;;;5092660;28;20036;-75
2023/08/30 04:11:51;;;;;;;11.07;8.20;;;;;;;;;;5111660;28;20179;-73
2023/08/30 04:14:17;;;;;;;9.47;7.97;;;;;;;;;;5096535;28;20039;-74
2023/08/30 04:16:43;;;;;;;13.20;8.17;;;;;;;;;;5111591;28;20020;-74
2023/08/30 04:19:09;;;;;;;11.83;8.50;;;;;;;;;;5095355;28;20066;-74
2023/08/30 04:21:35;;;;;;;12.70;7.63;;;;;;;;;;5095981;28;20028;-74
2023/08/30 04:24:02;;;;;;;11.20;7.47;;;;;;;;;;5092970;28;20028;-74
2023/08/30 04:26:30;;;;;;;10.23;6.67;;;;;;;;;;5090852;28;20107;-74
2023/08/30 04:28:56;;;;;;;14.23;8.93;;;;;;;;;;5112821;28;20091;-74
2023/08/30 04:31:22;;;;;;;11.00;7.90;;;;;;;;;;5094705;28;20036;-74
2023/08/30 04:33:48;;;;;;;10.93;7.70;;;;;;;;;;5111977;28;20078;-76
2023/08/30 04:36:16;;;;;;;11.23;7.57;;;;;;;;;;5112650;28;20020;-76
2023/08/30 04:38:42;;;;;;;10.43;8.20;;;;;;;;;;5113031;28;20076;-74
2023/08/30 04:41:11;;;;;;;9.93;6.87;;;;;;;;;;5111755;28;20032;-74
2023/08/30 04:43:37;;;;;;;9.40;7.93;;;;;;;;;;5111407;28;20031;-74
2023/08/30 04:46:05;;;;;;;10.53;8.30;;;;;;;;;;5093573;28;20051;-74
2023/08/30 04:48:34;;;;;;;12.67;8.20;;;;;;;;;;5090690;28;20012;-74
2023/08/30 04:51:03;;;;;;;13.20;8.90;;;;;;;;;;5112019;28;20020;-74
2023/08/30 04:53:29;;;;;;;13.53;8.10;;;;;;;;;;5097003;28;20066;-74
2023/08/30 04:55:55;;;;;;;12.33;8.50;;;;;;;;;;5097619;28;20008;-75
2023/08/30 04:58:21;;;;;;;11.67;9.03;;;;;;;;;;5097563;28;20024;-75
2023/08/30 05:00:47;;;;;;;9.73;8.13;;;;;;;;;;5113029;28;20031;-74
2023/08/30 05:03:13;;;;;;;9.33;8.20;;;;;;;;;;5111432;28;20054;-75
2023/08/30 05:05:39;;;;;;;12.50;8.60;;;;;;;;;;5096541;28;20056;-75
2023/08/30 05:08:06;;;;;;;12.10;8.60;;;;;;;;;;5096110;28;20027;-74
2023/08/30 05:10:32;;;;;;;14.07;8.63;;;;;;;;;;5111506;28;20126;-74
2023/08/30 05:12:58;;;;;;;13.40;8.20;;;;;;;;;;5110033;28;20024;-73
2023/08/30 05:15:27;;;;;;;15.13;8.43;;;;;;;;;;5096400;28;20028;-74
2023/08/30 05:17:55;;;;;;;14.30;8.90;;;;;;;;;;5112946;28;20020;-74
2023/08/30 05:20:21;;;;;;;11.87;8.70;;;;;;;;;;5096216;28;20036;-74
2023/08/30 05:22:47;;;;;;;16.03;8.33;;;;;;;;;;5093466;28;20062;-74
2023/08/30 05:25:15;;;;;;;13.73;9.60;;;;;;;;;;5091987;28;20044;-74
2023/08/30 05:27:41;;;;;;;13.63;9.03;;;;;;;;;;5094622;28;20043;-74
2023/08/30 05:30:08;;;;;;;13.17;9.67;;;;;;;;;;5111110;28;20035;-74
2023/08/30 05:32:34;;;;;;;12.17;9.60;;;;;;;;;;5112367;28;20028;-74
2023/08/30 05:35:00;;;;;;;11.70;9.00;;;;;;;;;;5110756;28;20035;-74
2023/08/30 05:37:26;;;;;;;15.87;10.03;;;;;;;;;;5111142;28;20032;-75
2023/08/30 05:39:52;;;;;;;17.40;9.70;;;;;;;;;;5110882;28;20028;-75
2023/08/30 05:42:18;;;;;;;20.83;11.20;;;;;;;;;;5087365;28;20032;-74
2023/08/30 05:44:44;;;;;;;16.17;9.47;;;;;;;;;;5094812;28;20035;-75
2023/08/30 05:47:14;;;;;;;18.33;10.27;;;;;;;;;;5110829;28;20092;-76
2023/08/30 05:49:40;;;;;;;17.10;9.87;;;;;;;;;;5094591;28;20058;-73
2023/08/30 05:52:09;;;;;;;12.73;9.80;;;;;;;;;;5110581;28;20032;-74
2023/08/30 05:54:35;;;;;;;18.37;9.73;;;;;;;;;;5090894;28;20031;-74
2023/08/30 05:57:00;;;;;;;16.40;9.57;;;;;;;;;;5110123;28;20063;-74
2023/08/30 05:59:29;;;;;;;12.83;9.50;;;;;;;;;;5110288;28;20024;-74
2023/08/30 06:01:55;;;;;;;15.53;10.13;;;;;;;;;;5093770;28;20042;-75
2023/08/30 06:04:22;;;;;;;13.83;9.67;;;;;;;;;;5094600;28;20096;-74
2023/08/30 06:06:48;;;;;;;15.63;10.70;;;;;;;;;;5090443;28;20031;-74
2023/08/30 06:09:14;;;;;;;14.13;10.53;;;;;;;;;;5091637;28;20052;-75
2023/08/30 06:11:40;;;;;;;17.60;10.70;;;;;;;;;;5108512;28;20053;-74
2023/08/30 06:14:08;;;;;;;15.33;9.80;;;;;;;;;;5109142;28;20042;-74
2023/08/30 06:16:34;;;;;;;19.73;11.30;;;;;;;;;;5093244;28;20470;-75
2023/08/30 06:19:00;;;;;;;13.80;11.15;;;;;;;;;;5110942;28;20026;-75
2023/08/30 06:21:26;;;;;;;14.32;9.90;;;;;;;;;;5107195;28;20033;-74
2023/08/30 06:23:52;;;;;;;13.63;10.02;;;;;;;;;;5091034;28;20017;-74
2023/08/30 06:26:19;;;;;;;16.05;10.48;;;;;;;;;;5111147;28;20031;-73
2023/08/30 06:28:45;;;;;;;11.18;9.40;;;;;;;;;;5109596;28;20023;-74
2023/08/30 06:31:11;;;;;;;17.45;10.30;;;;;;;;;;5110150;28;20071;-74
2023/08/30 06:33:38;;;;;;;12.60;9.55;;;;;;;;;;5094773;28;20062;-74
2023/08/30 06:36:04;;;;;;;14.80;10.60;;;;;;;;;;5109465;28;20012;-74
2023/08/30 06:38:30;;;;;;;15.25;9.80;;;;;;;;;;5110355;28;20035;-74
2023/08/30 06:40:58;;;;;;;14.50;8.70;;;;;;;;;;5093804;28;20021;-74
2023/08/30 06:43:24;;;;;;;13.57;9.20;;;;;;;;;;5110090;28;20032;-74
2023/08/30 06:45:50;;;;;;;16.63;9.23;;;;;;;;;;5109638;28;20076;-74
2023/08/30 06:48:16;;;;;;;10.15;8.48;;;;;;;;;;5088082;28;20035;-74
2023/08/30 06:50:42;;;;;;;15.10;8.32;;;;;;;;;;5095355;28;20016;-74
2023/08/30 06:53:09;;;;;;;11.43;8.18;;;;;;;;;;5093877;28;20036;-75
2023/08/30 06:55:36;;;;;;;14.88;7.97;;;;;;;;;;5089518;28;20221;-74
2023/08/30 06:58:02;;;;;;;10.07;6.47;;;;;;;;;;5110467;28;20012;-74
2023/08/30 07:00:31;;;;;;;14.00;6.32;;;;;;;;;;5090392;28;20032;-74
2023/08/30 07:02:58;;;;;;;8.93;5.55;;;;;;;;;;5095041;28;20016;-74
2023/08/30 07:05:24;;;;;;;9.38;6.82;;;;;;;;;;5109642;28;20016;-74
2023/08/30 07:07:50;;;;;;;8.68;6.15;;;;;;;;;;5109212;28;20066;-75
2023/08/30 07:10:16;;;;;;;8.30;6.00;;;;;;;;;;5091925;28;20040;-74
2023/08/30 07:12:43;;;;;;;9.27;6.63;;;;;;;;;;5090317;28;20043;-74
2023/08/30 07:15:09;;;;;;;9.23;6.20;;;;;;;;;;5109452;28;20048;-74
2023/08/30 07:17:35;;;;;;;16.85;7.68;;;;;;;;;;5093258;28;20038;-74
2023/08/30 07:20:03;;;;;;;7.93;5.72;;;;;;;;;;5094692;28;20020;-74
2023/08/30 07:22:29;;;;;;;9.55;5.70;;;;;;;;;;5092788;28;20367;-74
2023/08/30 07:24:55;;;;;;;10.35;6.38;;;;;;;;;;5109467;28;20020;-74
2023/08/30 07:27:21;;;;;;;7.68;5.68;;;;;;;;;;5108925;28;20052;-74
2023/08/30 07:29:47;;;;;;;8.80;5.97;;;;;;;;;;5094011;28;20035;-74
2023/08/30 07:32:13;;;;;;;9.35;5.78;;;;;;;;;;5107818;28;20025;-74
2023/08/30 07:34:39;;;;;;;12.40;5.90;;;;;;;;;;5108869;28;20122;-74
2023/08/30 07:37:05;;;;;;;13.13;6.57;;;;;;;;;;5092159;28;20152;-74
2023/08/30 07:39:33;;;;;;;9.55;5.18;;;;;;;;;;5108521;28;20020;-74
2023/08/30 07:41:59;;;;;;;6.88;4.53;;;;;;;;;;5090049;28;20020;-74
2023/08/30 07:44:25;;;;;;;12.77;5.20;;;;;;;;;;5108848;28;20050;-74
2023/08/30 07:46:54;;;;;;;14.68;4.97;;;;;;;;;;5087727;28;20016;-75
2023/08/30 07:49:20;;;;;;;9.40;4.80;;;;;;;;;;5108603;28;20091;-74
2023/08/30 07:51:46;;;;;;;8.23;5.20;;;;;;;;;;5110184;28;20094;-74
2023/08/30 07:54:12;;;;;;;9.50;4.97;;;;;;;;;;5094064;28;20020;-74
2023/08/30 07:56:38;;;;;;;7.32;4.95;;;;;;;;;;5089771;28;20041;-74
2023/08/30 07:59:06;;;;;;;10.15;5.03;;;;;;;;;;5108696;28;20020;-74
2023/08/30 08:01:35;;;;;;;7.93;4.30;;;;;;;;;;5093785;28;20032;-74
2023/08/30 08:04:01;;;;;;;6.57;4.38;;;;;;;;;;5094233;28;20091;-74
2023/08/30 08:06:27;;;;;;;9.43;4.20;;;;;;;;;;5092862;28;20024;-74
2023/08/30 08:08:53;;;;;;;6.53;3.92;;;;;;;;;;5088923;28;20012;-74
2023/08/30 08:11:19;;;;;;;10.30;4.47;;;;;;;;;;5089597;28;20029;-74
2023/08/30 08:13:47;;;;;;;6.18;3.97;;;;;;;;;;5109509;28;20059;-75
2023/08/30 08:16:13;;;;;;;6.57;4.03;;;;;;;;;;5082497;28;20034;-76
2023/08/30 08:18:39;;;;;;;7.72;3.50;;;;;;;;;;5088788;28;20036;-81
2023/08/30 08:21:05;;;;;;;7.03;3.65;;;;;;;;;;5085238;28;20792;-82
2023/08/30 08:23:31;;;;;;;5.07;3.50;;;;;;;;;;5071386;28;20094;-80
2023/08/30 08:26:00;;;;;;;5.78;3.20;;;;;;;;;;5088573;28;20042;-83
2023/08/30 08:28:26;;;;;;;10.63;2.65;;;;;;;;;;5067006;28;20039;-86
2023/08/30 08:30:52;;;;;;;5.38;3.22;;;;;;;;;;5086744;28;20031;-84
2023/08/30 08:33:19;;;;;;;5.93;3.05;;;;;;;;;;5070397;28;20088;-81
2023/08/30 08:35:45;;;;;;;3.95;1.90;;;;;;;;;;5065806;28;20032;-81
2023/08/30 08:38:16;;;;;;;5.78;2.63;;;;;;;;;;5073221;28;21758;-83
2023/08/30 08:40:42;;;;;;;4.78;2.63;;;;;;;;;;5088419;28;20028;-84
2023/08/30 08:43:11;;;;;;;7.53;3.17;;;;;;;;;;5071196;28;20042;-83
2023/08/30 08:45:39;;;;;;;4.28;2.90;;;;;;;;;;5087418;28;20040;-81
2023/08/30 08:48:08;;;;;;;5.57;2.75;;;;;;;;;;5087231;28;20107;-82
2023/08/30 08:50:34;;;;;;;6.97;2.50;;;;;;;;;;5070038;28;20036;-85
2023/08/30 08:53:03;;;;;;;4.97;2.42;;;;;;;;;;5086876;28;20040;-83
2023/08/30 08:55:35;;;;;;;4.90;2.35;;;;;;;;;;5064651;28;20056;-81
2023/08/30 08:58:02;;;;;;;3.55;1.70;;;;;;;;;;5086569;28;20033;-83
2023/08/30 09:00:31;;;;;;;5.78;1.95;;;;;;;;;;5088832;28;20036;-81
2023/08/30 09:02:57;;;;;;;6.43;2.03;;;;;;;;;;5070048;28;20020;-83
2023/08/30 09:05:23;;;;;;;4.63;2.00;;;;;;;;;;5072181;28;20024;-82
2023/08/30 09:07:53;;;;;;;4.10;2.05;;;;;;;;;;5069377;28;20039;-82
2023/08/30 09:10:19;;;;;;;8.25;2.33;;;;;;;;;;5090563;28;20036;-84
2023/08/30 09:12:45;;;;;;;3.60;2.13;;;;;;;;;;5070308;28;20023;-84
2023/08/30 09:15:11;;;;;;;6.53;2.30;;;;;;;;;;5070643;28;20047;-82
2023/08/30 09:17:40;;;;;;;5.25;2.30;;;;;;;;;;5087416;28;20067;-84
2023/08/30 09:20:09;;;;;;;5.85;2.28;;;;;;;;;;5085806;28;20096;-81
2023/08/30 09:22:38;;;;;;;3.28;1.80;;;;;;;;;;5066295;28;20036;-82
2023/08/30 09:25:05;;;;;;;4.82;2.20;;;;;;;;;;5085582;28;20032;-85
2023/08/30 09:27:34;;;;;;;6.45;2.10;;;;;;;;;;5068989;28;20097;-83
2023/08/30 09:30:00;;;;;;;5.85;2.30;;;;;;;;;;5070908;28;20024;-81
2023/08/30 09:32:26;;;;;;;4.93;2.40;;;;;;;;;;5069423;28;20050;-85
2023/08/30 09:34:52;;;;;;;5.60;2.00;;;;;;;;;;5085663;28;20096;-81
2023/08/30 09:37:26;;;;;;;4.97;1.90;;;;;;;;;;5083708;28;20032;-84
2023/08/30 09:39:52;;;;;;;7.65;2.28;;;;;;;;;;5070249;28;20024;-83
2023/08/30 09:42:21;;;;;;;4.38;1.98;;;;;;;;;;5084628;28;20062;-84
2023/08/30 09:44:48;;;;;;;3.75;2.08;;;;;;;;;;5085935;28;20020;-81
2023/08/30 09:47:17;;;;;;;4.00;2.00;;;;;;;;;;5085491;28;20103;-84
2023/08/30 09:49:45;;;;;;;4.55;2.30;;;;;;;;;;5086113;28;20042;-84
2023/08/30 09:52:11;;;;;;;4.22;2.30;;;;;;;;;;5086858;28;20047;-83
2023/08/30 09:54:41;;;;;;;5.70;2.17;;;;;;;;;;5085027;28;20123;-83
2023/08/30 09:57:07;;;;;;;5.93;2.40;;;;;;;;;;5085177;28;20020;-81
2023/08/30 09:59:34;;;;;;;9.95;2.33;;;;;;;;;;5085568;28;20043;-86
2023/08/30 10:02:00;;;;;;;3.70;2.00;;;;;;;;;;5071069;28;20028;-85
2023/08/30 10:04:27;;;;;;;4.47;2.53;;;;;;;;;;5065761;28;20142;-81
2023/08/30 10:06:54;;;;;;;6.53;2.60;;;;;;;;;;5063159;28;20079;-84
2023/08/30 10:09:22;;;;;;;5.93;2.33;;;;;;;;;;5070533;28;20032;-83
2023/08/30 10:11:49;;;;;;;8.95;1.88;;;;;;;;;;5067615;28;20043;-85
2023/08/30 10:14:17;;;;;;;2.90;1.88;;;;;;;;;;5085568;28;20050;-82
2023/08/30 10:16:47;;;;;;;5.85;1.83;;;;;;;;;;5063209;28;20031;-83
2023/08/30 10:19:18;;;;;;;5.18;2.00;;;;;;;;;;5085183;28;20079;-84
2023/08/30 10:21:44;;;;;;;4.15;1.83;;;;;;;;;;5086363;28;20198;-82
2023/08/30 10:24:12;;;;;;;4.13;2.00;;;;;;;;;;5069374;28;20081;-84
2023/08/30 10:26:38;;;;;;;5.15;2.72;;;;;;;;;;5085441;28;20055;-84
2023/08/30 10:29:04;;;;;;;3.90;2.17;;;;;;;;;;5085276;28;20101;-82
2023/08/30 10:31:30;;;;;;;5.07;1.90;;;;;;;;;;5070164;28;20028;-82
2023/08/30 10:33:59;;;;;;;6.95;1.98;;;;;;;;;;5084982;28;20058;-82
2023/08/30 10:36:25;;;;;;;3.92;2.08;;;;;;;;;;5067901;28;20118;-83
2023/08/30 10:38:52;;;;;;;4.25;2.15;;;;;;;;;;5066665;28;20028;-81
2023/08/30 10:41:22;;;;;;;3.97;1.88;;;;;;;;;;5065080;28;20518;-81
2023/08/30 10:43:52;;;;;;;3.92;2.10;;;;;;;;;;5083967;28;20086;-82
2023/08/30 10:46:29;;;;;;;4.35;2.35;;;;;;;;;;5084137;28;20063;-83
2023/08/30 10:48:57;;;;;;;4.40;1.98;;;;;;;;;;5062888;28;20036;-84
2023/08/30 10:51:37;;;;;;;4.53;1.95;;;;;;;;;;5084417;28;20063;-85
2023/08/30 10:54:10;;;;;;;3.80;2.00;;;;;;;;;;5067262;28;20036;-83
2023/08/30 10:56:46;;;;;;;6.95;2.10;;;;;;;;;;5084329;28;20032;-84
2023/08/30 10:59:17;;;;;;;12.25;3.20;;;;;;;;;;5082787;28;20028;-79
2023/08/30 11:01:43;;;;;;;6.55;3.65;;;;;;;;;;5086114;28;20026;-74
2023/08/30 11:04:12;;;;;;;5.18;3.38;;;;;;;;;;5090842;28;20107;-74
2023/08/30 11:06:39;;;;;;;7.70;3.15;;;;;;;;;;5107977;28;20017;-74
2023/08/30 11:09:05;;;;;;;8.57;3.47;;;;;;;;;;5109642;28;20028;-74
2023/08/30 11:11:34;;;;;;;10.35;4.60;;;;;;;;;;5107743;28;20032;-74
2023/08/30 11:14:11;;;;;;;11.18;4.47;;;;;;;;;;5109564;28;20040;-75
2023/08/30 11:16:37;;;;;;;18.95;4.85;;;;;;;;;;5109805;28;20012;-75
2023/08/30 11:19:07;;;;;;;15.57;4.85;;;;;;;;;;5094103;28;20027;-77
2023/08/30 11:21:34;;;;;;;11.85;4.50;;;;;;;;;;5096416;28;20205;-76
2023/08/30 11:24:03;;;;;;;11.00;4.25;;;;;;;;;;5109283;28;20027;-76
2023/08/30 11:26:29;;;;;;;14.10;3.75;;;;;;;;;;5087509;28;20035;-77
2023/08/30 11:28:55;;;;;;;17.95;4.28;;;;;;;;;;5109421;28;20008;-77
2023/08/30 11:31:27;;;;;;;10.00;4.18;;;;;;;;;;5089599;28;20046;-77
2023/08/30 11:33:55;;;;;;;9.35;4.78;;;;;;;;;;5092967;28;20061;-77
2023/08/30 11:36:22;;;;;;;43.88;7.70;;;;;;;;;;5086677;28;20060;-77
2023/08/30 11:38:48;;;;;;;11.30;6.53;;;;;;;;;;5093358;28;20035;-77
2023/08/30 11:41:14;;;;;;;12.13;6.78;;;;;;;;;;5089815;28;20024;-76
2023/08/30 11:43:40;;;;;;;20.13;7.63;;;;;;;;;;5092547;28;20032;-76
2023/08/30 11:46:06;;;;;;;12.52;7.57;;;;;;;;;;5093093;28;20024;-76
2023/08/30 11:48:35;;;;;;;16.00;8.05;;;;;;;;;;5108959;28;20028;-76
2023/08/30 11:51:01;;;;;;;15.18;7.80;;;;;;;;;;5092162;28;20028;-76
2023/08/30 11:53:27;;;;;;;19.52;7.53;;;;;;;;;;5093291;28;20028;-77
2023/08/30 11:55:56;;;;;;;22.35;8.10;;;15.30;99.90;;;;;;5093272;28;20020;-77
2023/08/30 11:58:21;;;;;;;17.30;7.45;;;15.20;99.90;;;;;;5097100;28;20120;-77
2023/08/30 12:00:50;;;;;;;15.90;7.22;;;15.20;99.90;;;;;;5094996;28;20043;-76
2023/08/30 12:03:16;;;;;;;11.85;7.38;;;15.20;99.90;;;;;;5091959;28;20051;-76
2023/08/30 12:05:46;;;;;;;19.65;9.00;;;15.30;99.90;;;;;;5097295;28;20083;-76
2023/08/30 12:08:25;;;;;;;16.02;8.90;;;;;;;;;;5095986;28;20027;-76
2023/08/30 12:10:54;;;;;;;16.50;7.65;;;;;;;;;;5112774;28;20028;-76
2023/08/30 12:13:31;;;;;;;19.67;7.45;;;15.30;99.90;;;;;;5112186;28;20061;-77
2023/08/30 12:15:58;;;;;;;13.20;6.82;;;15.40;99.90;;;;;;5096445;28;20074;-77
2023/08/30 12:18:29;;;;;;;8.43;5.55;;;15.40;99.90;;;;;;5094436;28;20020;-77
2023/08/30 12:20:57;;;;;;;18.25;6.45;;;15.40;99.90;;;;;;5093861;28;20058;-77
2023/08/30 12:23:23;;;;;;;16.75;6.22;;;15.30;99.90;;;;;;5098323;28;20009;-77
2023/08/30 12:26:01;;;;;;;25.77;7.25;;;15.30;99.90;;;;;;5112896;28;20036;-78
2023/08/30 12:28:31;;;;;;;10.07;6.25;;;15.20;99.90;;;;;;5113009;28;20130;-78
2023/08/30 12:30:57;;;;;;;16.05;8.43;;;15.20;99.90;;;;;;5093582;28;20022;-78
2023/08/30 12:33:25;;;;;;;11.38;6.40;;;15.20;99.90;;;;;;5092393;28;20024;-76
2023/08/30 12:35:54;;;;;;;12.32;7.05;;;15.20;99.90;;;;;;5112838;28;20020;-76
2023/08/30 12:38:20;;;;;;;14.27;6.82;;;15.20;99.90;;;;;;5112504;28;20044;-76
2023/08/30 12:40:55;;;;;;;8.85;5.18;;;15.20;99.90;;;;;;5096271;28;20125;-77
2023/08/30 12:43:23;;;;;;;15.15;6.45;;;15.30;99.90;;;;;;5093089;28;20027;-77
2023/08/30 12:45:50;;;;;;;8.50;4.30;;;15.30;99.90;;;;;;5111722;28;20036;-76
2023/08/30 12:48:20;;;;;;;8.75;4.03;;;15.30;99.90;;;;;;5095749;28;20023;-78
2023/08/30 12:50:47;;;;;;;13.07;4.80;;;15.20;99.90;;;;;;5094716;28;20032;-77
2023/08/30 12:53:19;;;;;;;6.90;4.25;;;15.20;99.90;;;;;;5092137;28;20032;-77
2023/08/30 12:55:45;;;;;;;8.03;4.50;;;;;;;;;;5090329;28;20024;-77
2023/08/30 12:58:11;;;;;;;5.80;4.22;;;15.20;99.90;;;;;;5094620;28;20034;-77
2023/08/30 13:00:41;;;;;;;5.50;4.25;;;;;;;;;;5097343;28;20122;-76
2023/08/30 13:03:07;;;;;;;8.73;4.57;;;;;;;;;;5110752;28;20059;-77
2023/08/30 13:05:33;;;;;;;7.05;4.93;;;;;;;;;;5090651;28;20024;-77
2023/08/30 13:08:15;;;;;;;7.57;4.95;;;;;;;;;;5107204;28;20016;-76
2023/08/30 13:10:41;;;;;;;13.53;5.20;;;;;;;;;;5092736;28;20012;-76
2023/08/30 13:13:09;;;;;;;5.90;4.65;;;;;;;;;;5110754;28;20277;-76
2023/08/30 13:15:43;;;;;;;6.78;4.15;;;;;;;;;;5111089;28;20028;-76
2023/08/30 13:18:09;;;;;;;10.05;5.32;;;;;;;;;;5092925;28;20636;-76
2023/08/30 13:20:39;;;;;;;7.90;4.60;;;;;;;;;;5095850;28;21265;-76
2023/08/30 13:23:05;;;;;;;5.35;4.18;;;;;;;;;;5094380;28;20021;-76
2023/08/30 13:25:30;;;;;;;27.77;5.80;;;15.00;99.90;;;;;;5110652;28;20024;-78
2023/08/30 13:27:59;;;;;;;13.27;4.57;;;14.90;99.90;;;;;;5094177;28;20143;-78
2023/08/30 13:30:24;;;;;;;10.30;4.15;;;14.90;99.90;;;;;;5093172;28;20024;-78
2023/08/30 13:32:50;;;;;;;14.88;4.70;;;15.00;99.90;;;;;;5092876;28;20017;-78
2023/08/30 13:35:16;;;;;;;9.75;5.13;;;15.00;99.90;;;;;;5092598;28;20032;-78
2023/08/30 13:37:42;;;;;;;8.60;5.28;;;14.90;99.90;;;;;;5092588;28;20051;-79
2023/08/30 13:40:08;;;;;;;9.10;5.03;;;;;;;;;;5089716;28;20122;-78
2023/08/30 13:42:33;;;;;;;11.18;4.88;;;15.10;99.90;;;;;;5087474;28;20242;-78
2023/08/30 13:44:59;;;;;;;8.57;4.38;;;15.10;99.90;;;;;;5092791;28;20116;-77
2023/08/30 13:47:25;;;;;;;11.10;5.38;;;15.10;99.90;;;;;;5091722;28;20105;-78
2023/08/30 13:49:51;;;;;;;5.85;4.25;;;15.10;99.90;;;;;;5091068;28;20019;-77
2023/08/30 13:52:17;;;;;;;8.55;4.93;;;15.00;99.90;;;;;;5094576;28;20012;-76
2023/08/30 13:54:43;;;;;;;11.20;4.78;;;15.00;99.90;;;;;;5092033;28;20039;-77
2023/08/30 13:57:09;;;;;;;19.35;4.82;;;15.00;99.90;;;;;;5091393;28;20032;-77
2023/08/30 13:59:35;;;;;;;10.25;4.90;;;;;;;;;;5094763;28;20040;-77
2023/08/30 14:02:03;;;;;;;8.68;4.63;;;;;;;;;;5110064;28;20995;-77
2023/08/30 14:04:32;;;;;;;5.85;4.05;;;;;;;;;;5095365;28;20056;-76
2023/08/30 14:07:00;;;;;;;9.60;5.40;;;;;;;;;;5090932;28;20025;-76
2023/08/30 14:09:26;;;;;;;15.38;5.22;;;15.00;99.90;;;;;;5094428;28;20032;-78
2023/08/30 14:11:52;;;;;;;16.17;5.47;;;;;;;;;;5092957;28;20035;-78
2023/08/30 14:14:27;;;;;;;20.65;5.95;;;;;;;;;;5109755;28;20107;-78
2023/08/30 14:16:53;;;;;;;19.85;6.43;;;;;;;;;;5109758;28;20035;-78
2023/08/30 14:19:19;;;;;;;22.05;7.13;;;;;;;;;;5091314;28;20083;-79